Time;durP1;ratioP1;P1;durP2;ratioP2;P2;SDS_P1;SDS_P2;PMS_P1;PMS_P2;Temp;Humidity;BMP_temperature;BMP_pressure;BME280_temperature;BME280_humidity;BME280_pressure;Samples;Min_cycle;Max_cycle;Signal;HPM_P1;HPM_P2
2021/01/11 00:01:43;;;;;;;22.70;12.70;;;1.70;99.90;;;;;;4992010;28;20447;-61
2021/01/11 00:04:10;;;;;;;26.77;14.10;;;1.70;99.90;;;;;;4991444;28;20949;-62
2021/01/11 00:06:38;;;;;;;27.90;14.27;;;1.70;99.90;;;;;;4985732;28;20467;-62
2021/01/11 00:09:05;;;;;;;20.00;11.10;;;1.70;99.90;;;;;;4997762;28;20530;-61
2021/01/11 00:11:35;;;;;;;25.10;12.63;;;1.70;99.90;;;;;;4994148;28;20459;-61
2021/01/11 00:14:02;;;;;;;20.67;11.57;;;1.70;99.90;;;;;;4992863;28;20507;-62
2021/01/11 00:16:29;;;;;;;24.97;13.17;;;1.70;99.90;;;;;;4992880;28;20555;-62
2021/01/11 00:18:56;;;;;;;23.43;12.50;;;1.70;99.90;;;;;;5433852;23;20575;-61
2021/01/11 00:21:22;;;;;;;19.33;10.80;;;1.60;99.90;;;;;;4994529;28;20640;-63
2021/01/11 00:23:50;;;;;;;27.10;12.37;;;1.70;99.90;;;;;;5000043;28;20493;-62
2021/01/11 00:26:16;;;;;;;25.13;12.07;;;1.70;99.90;;;;;;5013879;28;20446;-63
2021/01/11 00:28:43;;;;;;;21.90;11.23;;;1.70;99.90;;;;;;5006176;28;20481;-63
2021/01/11 00:31:11;;;;;;;25.20;11.90;;;1.70;99.90;;;;;;5014192;28;20485;-62
2021/01/11 00:33:38;;;;;;;20.43;11.47;;;1.80;99.90;;;;;;5015206;28;20490;-62
2021/01/11 00:36:05;;;;;;;25.90;11.73;;;1.80;99.90;;;;;;5008522;28;20443;-62
2021/01/11 00:38:33;;;;;;;24.60;12.40;;;1.80;99.90;;;;;;4995057;28;20481;-62
2021/01/11 00:41:00;;;;;;;24.23;13.10;;;1.80;99.90;;;;;;4995028;28;20503;-62
2021/01/11 00:43:26;;;;;;;19.10;10.90;;;1.80;99.90;;;;;;4994630;28;20487;-62
2021/01/11 00:45:53;;;;;;;24.17;14.43;;;1.80;99.90;;;;;;4994154;28;20458;-62
2021/01/11 00:48:19;;;;;;;21.67;11.57;;;1.70;99.90;;;;;;4994736;28;20487;-62
2021/01/11 00:50:46;;;;;;;23.67;11.60;;;1.70;99.90;;;;;;4995049;28;20443;-62
2021/01/11 00:53:12;;;;;;;18.93;11.33;;;1.70;99.90;;;;;;4995917;28;20447;-62
2021/01/11 00:55:39;;;;;;;19.30;11.77;;;1.70;99.90;;;;;;4995302;28;20454;-63
2021/01/11 00:58:06;;;;;;;22.87;10.73;;;1.60;99.90;;;;;;4994681;28;20442;-62
2021/01/11 01:00:33;;;;;;;23.70;11.63;;;1.60;99.90;;;;;;4995003;28;20487;-62
2021/01/11 01:03:00;;;;;;;19.87;11.70;;;1.70;99.90;;;;;;4995159;28;20471;-62
2021/01/11 01:05:26;;;;;;;16.57;10.53;;;1.70;99.90;;;;;;4995411;28;20423;-62
2021/01/11 01:07:53;;;;;;;21.30;10.20;;;1.70;99.90;;;;;;4995336;28;20447;-62
2021/01/11 01:10:19;;;;;;;22.30;10.87;;;1.80;99.90;;;;;;4993082;28;20447;-61
2021/01/11 01:12:46;;;;;;;17.33;10.87;;;1.80;99.90;;;;;;4992857;28;20462;-62
2021/01/11 01:15:14;;;;;;;20.53;12.10;;;1.80;99.90;;;;;;4994357;28;20510;-62
2021/01/11 01:17:40;;;;;;;23.17;12.37;;;1.80;99.90;;;;;;4993157;28;20473;-62
2021/01/11 01:20:15;;;;;;;21.87;11.90;;;1.90;99.90;;;;;;4993150;28;20482;-62
2021/01/11 01:22:43;;;;;;;18.80;11.53;;;1.90;99.90;;;;;;4993057;28;20453;-62
2021/01/11 01:25:11;;;;;;;16.77;10.30;;;1.90;99.90;;;;;;4994809;28;20446;-64
2021/01/11 01:27:37;;;;;;;17.77;11.17;;;2.00;99.90;;;;;;4994755;28;20455;-62
2021/01/11 01:30:05;;;;;;;22.53;11.00;;;1.90;99.90;;;;;;4994846;28;20493;-62
2021/01/11 01:32:32;;;;;;;24.30;12.57;;;1.90;99.90;;;;;;4994834;28;20478;-63
2021/01/11 01:34:59;;;;;;;25.03;12.73;;;1.90;99.90;;;;;;4993701;28;20462;-62
2021/01/11 01:37:25;;;;;;;20.00;11.23;;;1.90;99.90;;;;;;4994414;28;20430;-61
2021/01/11 01:39:52;;;;;;;20.60;9.73;;;2.00;99.90;;;;;;4994304;28;20443;-63
2021/01/11 01:42:18;;;;;;;21.43;11.17;;;1.90;99.90;;;;;;4994322;28;20463;-62
2021/01/11 01:44:44;;;;;;;16.00;9.17;;;1.90;99.90;;;;;;4994749;28;20517;-63
2021/01/11 01:47:11;;;;;;;16.13;9.57;;;1.90;99.90;;;;;;4994664;28;20477;-62
2021/01/11 01:49:38;;;;;;;14.90;9.10;;;1.90;99.90;;;;;;4993769;28;20462;-63
2021/01/11 01:52:07;;;;;;;19.80;9.70;;;1.90;99.90;;;;;;4993237;28;20514;-63
2021/01/11 01:54:35;;;;;;;19.67;10.63;;;1.90;99.90;;;;;;4993374;28;20471;-62
2021/01/11 01:57:02;;;;;;;18.20;10.03;;;1.90;99.90;;;;;;4993792;28;20471;-62
2021/01/11 01:59:28;;;;;;;20.30;12.10;;;2.00;99.90;;;;;;4994541;28;20451;-62
2021/01/11 02:01:55;;;;;;;17.70;9.33;;;2.00;99.90;;;;;;4991526;28;20579;-62
2021/01/11 02:04:22;;;;;;;27.13;10.57;;;2.00;99.90;;;;;;4981405;28;20516;-62
2021/01/11 02:06:56;;;;;;;20.27;9.23;;;2.10;99.90;;;;;;4972626;29;20919;-62
2021/01/11 02:09:39;;;;;;;15.83;8.83;;;2.10;99.90;;;;;;4973312;29;20435;-62
2021/01/11 02:12:14;;;;;;;19.70;10.07;;;2.10;99.90;;;;;;4973122;29;20502;-62
2021/01/11 02:15:00;;;;;;;16.43;8.43;;;2.10;99.90;;;;;;4973834;29;20424;-62
2021/01/11 02:17:31;;;;;;;15.97;9.47;;;2.10;99.90;;;;;;4973308;29;20563;-62
2021/01/11 02:20:43;;;;;;;17.10;8.90;;;2.00;99.90;;;;;;4974058;29;20527;-61
2021/01/11 02:23:52;;;;;;;15.30;8.57;;;2.10;99.90;;;;;;4974572;29;20472;-62
2021/01/11 02:26:38;;;;;;;16.63;10.60;;;2.00;99.90;;;;;;4974455;29;20439;-62
2021/01/11 02:29:15;;;;;;;18.13;9.07;;;2.10;99.90;;;;;;4973489;28;20498;-62
2021/01/11 02:31:44;;;;;;;16.00;9.90;;;2.00;99.90;;;;;;4971165;28;20451;-62
2021/01/11 02:34:13;;;;;;;15.73;8.53;;;2.10;99.90;;;;;;4966536;29;20447;-62
2021/01/11 02:36:40;;;;;;;15.30;9.17;;;2.10;99.90;;;;;;4970517;29;20463;-62
2021/01/11 02:39:06;;;;;;;14.23;7.73;;;2.10;99.90;;;;;;4966235;28;20519;-63
2021/01/11 02:41:33;;;;;;;12.40;8.77;;;2.20;99.90;;;;;;4976234;29;20471;-62
2021/01/11 02:43:59;;;;;;;14.83;8.93;;;2.20;99.90;;;;;;4976127;29;20578;-63
2021/01/11 02:46:25;;;;;;;17.93;9.23;;;2.20;99.90;;;;;;4976589;29;20844;-63
2021/01/11 02:48:56;;;;;;;13.93;8.97;;;2.20;99.90;;;;;;4976845;29;20467;-63
2021/01/11 02:51:31;;;;;;;15.67;8.80;;;2.20;99.90;;;;;;4977368;29;20450;-63
2021/01/11 02:54:07;;;;;;;18.63;9.93;;;2.20;99.90;;;;;;4977909;29;20506;-62
2021/01/11 02:56:39;;;;;;;15.40;9.00;;;2.10;99.90;;;;;;4976932;29;20439;-62
2021/01/11 02:59:10;;;;;;;16.50;8.27;;;2.00;99.90;;;;;;4976325;29;20462;-61
2021/01/11 03:01:43;;;;;;;12.80;8.43;;;2.00;99.90;;;;;;4976863;29;20447;-62
2021/01/11 03:04:18;;;;;;;13.77;8.50;;;2.10;99.90;;;;;;4987202;28;20526;-63
2021/01/11 03:06:53;;;;;;;21.27;10.43;;;2.10;99.90;;;;;;4995365;28;20489;-61
2021/01/11 03:09:20;;;;;;;16.03;8.50;;;2.10;99.90;;;;;;4996537;28;20478;-62
2021/01/11 03:11:46;;;;;;;19.47;9.23;;;2.10;99.90;;;;;;4997373;28;20519;-62
2021/01/11 03:14:13;;;;;;;14.03;9.17;;;2.10;99.90;;;;;;4997417;28;20474;-62
2021/01/11 03:16:39;;;;;;;19.00;10.23;;;2.10;99.90;;;;;;4995863;28;20509;-62
2021/01/11 03:19:05;;;;;;;14.90;9.17;;;2.10;99.90;;;;;;4995223;28;20470;-62
2021/01/11 03:21:34;;;;;;;13.70;8.70;;;2.10;99.90;;;;;;4990201;28;20456;-62
2021/01/11 03:24:00;;;;;;;17.20;9.30;;;2.10;99.90;;;;;;4987872;28;20534;-61
2021/01/11 03:26:27;;;;;;;15.50;8.97;;;2.10;99.90;;;;;;4997505;28;20439;-62
2021/01/11 03:28:54;;;;;;;16.07;10.73;;;2.10;99.90;;;;;;4995942;28;20486;-63
2021/01/11 03:31:21;;;;;;;14.57;8.40;;;2.00;99.90;;;;;;4994902;28;20475;-62
2021/01/11 03:33:48;;;;;;;17.80;9.10;;;2.10;99.90;;;;;;4994411;28;20475;-62
2021/01/11 03:36:14;;;;;;;14.57;8.77;;;2.10;99.90;;;;;;4994475;28;20485;-62
2021/01/11 03:38:42;;;;;;;13.60;8.43;;;2.20;99.90;;;;;;4995157;28;20503;-62
2021/01/11 03:41:09;;;;;;;11.43;6.77;;;2.20;99.90;;;;;;4995555;28;20466;-63
2021/01/11 03:43:37;;;;;;;15.43;8.27;;;2.20;99.90;;;;;;4994533;28;20517;-62
2021/01/11 03:46:04;;;;;;;17.77;8.80;;;2.20;99.90;;;;;;4993702;28;20466;-62
2021/01/11 03:48:31;;;;;;;14.57;8.37;;;2.20;99.90;;;;;;4994673;28;20475;-63
2021/01/11 03:50:57;;;;;;;17.60;9.10;;;2.20;99.90;;;;;;4992814;28;20479;-62
2021/01/11 03:53:24;;;;;;;27.43;8.90;;;2.20;99.90;;;;;;4994838;28;20447;-62
2021/01/11 03:55:51;;;;;;;13.23;7.60;;;2.20;99.90;;;;;;4994665;28;20490;-63
2021/01/11 03:58:17;;;;;;;12.33;7.90;;;2.20;99.90;;;;;;4994979;28;20477;-62
2021/01/11 04:00:44;;;;;;;19.07;9.73;;;2.10;99.90;;;;;;4994938;28;20453;-61
2021/01/11 04:03:10;;;;;;;18.10;8.47;;;2.20;99.90;;;;;;4995445;28;20523;-62
2021/01/11 04:05:37;;;;;;;12.47;9.00;;;2.20;99.90;;;;;;4995419;28;20549;-62
2021/01/11 04:08:05;;;;;;;16.63;9.00;;;2.10;99.90;;;;;;4995448;28;20467;-62
2021/01/11 04:10:31;;;;;;;12.53;8.33;;;2.10;99.90;;;;;;4997119;28;20436;-62
2021/01/11 04:12:58;;;;;;;16.77;9.10;;;2.00;99.90;;;;;;4996539;28;20439;-62
2021/01/11 04:15:25;;;;;;;21.90;9.73;;;1.90;99.90;;;;;;4995692;28;20447;-63
2021/01/11 04:17:51;;;;;;;14.33;8.93;;;1.90;99.90;;;;;;4994674;28;20505;-62
2021/01/11 04:20:19;;;;;;;18.40;9.33;;;1.90;99.90;;;;;;4995319;28;20542;-63
2021/01/11 04:22:45;;;;;;;15.00;9.23;;;1.90;99.90;;;;;;4995677;28;20451;-62
2021/01/11 04:25:12;;;;;;;18.77;10.27;;;1.90;99.90;;;;;;4996068;28;20506;-62
2021/01/11 04:27:39;;;;;;;17.10;10.50;;;1.90;99.90;;;;;;4992103;28;20498;-62
2021/01/11 04:30:08;;;;;;;14.17;9.87;;;1.80;99.90;;;;;;4995801;28;20564;-61
2021/01/11 04:32:35;;;;;;;14.07;9.13;;;1.90;99.90;;;;;;4995355;28;20926;-62
2021/01/11 04:35:02;;;;;;;13.93;9.73;;;1.80;99.90;;;;;;4995715;28;20538;-62
2021/01/11 04:37:28;;;;;;;17.60;10.57;;;1.80;99.90;;;;;;4995215;28;20443;-61
2021/01/11 04:39:54;;;;;;;15.90;10.30;;;1.90;99.90;;;;;;4995906;28;20553;-61
2021/01/11 04:42:42;;;;;;;17.35;10.25;;;1.90;99.90;;;;;;5018931;23;20447;-60
2021/01/11 04:45:10;;;;;;;14.23;8.57;;;1.90;99.90;;;;;;5110956;23;20499;-61
2021/01/11 04:47:37;;;;;;;22.87;10.97;;;1.90;99.90;;;;;;4996084;28;20447;-62
2021/01/11 04:50:04;;;;;;;15.20;9.57;;;1.90;99.90;;;;;;4995724;28;20533;-62
2021/01/11 04:52:32;;;;;;;15.00;9.30;;;1.90;99.90;;;;;;4995626;28;20501;-62
2021/01/11 04:55:01;;;;;;;18.97;11.10;;;1.80;99.90;;;;;;4994315;28;20454;-62
2021/01/11 04:57:33;;;;;;;15.70;9.40;;;1.90;99.90;;;;;;4994393;28;20459;-62
2021/01/11 05:00:04;;;;;;;19.03;10.00;;;1.90;99.90;;;;;;4994934;28;20435;-62
2021/01/11 05:02:32;;;;;;;12.10;8.30;;;1.90;99.90;;;;;;4993181;28;20494;-62
2021/01/11 05:04:59;;;;;;;15.87;9.73;;;1.90;99.90;;;;;;4995119;28;20570;-62
2021/01/11 05:07:31;;;;;;;13.93;7.90;;;1.90;99.90;;;;;;4994793;28;20443;-62
2021/01/11 05:09:58;;;;;;;17.17;10.20;;;2.00;99.90;;;;;;4995609;28;20427;-61
2021/01/11 05:12:25;;;;;;;14.47;8.80;;;1.90;99.90;;;;;;4994122;28;20453;-62
2021/01/11 05:15:16;;;;;;;18.10;9.63;;;1.90;99.90;;;;;;4994659;28;20416;-62
2021/01/11 05:17:44;;;;;;;14.93;8.33;;;1.90;99.90;;;;;;4995248;28;20439;-62
2021/01/11 05:20:13;;;;;;;16.90;9.10;;;1.90;99.90;;;;;;4994774;28;20913;-62
2021/01/11 05:22:40;;;;;;;15.53;9.47;;;1.90;99.90;;;;;;4995518;28;20498;-61
2021/01/11 05:25:13;;;;;;;21.60;12.90;;;1.80;99.90;;;;;;4988993;28;20475;-61
2021/01/11 05:27:40;;;;;;;13.50;8.40;;;1.90;99.90;;;;;;4973807;29;20464;-62
2021/01/11 05:30:10;;;;;;;15.60;9.40;;;1.90;99.90;;;;;;4975472;29;20459;-62
2021/01/11 05:32:37;;;;;;;16.87;9.37;;;1.80;99.90;;;;;;4975748;29;20447;-62
2021/01/11 05:35:05;;;;;;;17.10;10.10;;;1.80;99.90;;;;;;4975217;29;20451;-62
2021/01/11 05:37:36;;;;;;;17.23;9.90;;;1.80;99.90;;;;;;4974638;29;20455;-61
2021/01/11 05:40:09;;;;;;;13.40;8.67;;;1.80;99.90;;;;;;4974254;29;20447;-61
2021/01/11 05:42:36;;;;;;;12.50;8.67;;;1.90;99.90;;;;;;4974305;29;20468;-62
2021/01/11 05:45:13;;;;;;;18.23;10.37;;;1.90;99.90;;;;;;4974875;29;20527;-62
2021/01/11 05:47:58;;;;;;;18.33;8.93;;;1.90;99.90;;;;;;4974613;29;20455;-62
2021/01/11 05:50:27;;;;;;;16.70;9.43;;;1.90;99.90;;;;;;4975915;29;20479;-62
2021/01/11 05:52:53;;;;;;;19.00;10.10;;;1.80;99.90;;;;;;4974925;29;20977;-62
2021/01/11 05:55:20;;;;;;;21.10;9.77;;;1.90;99.90;;;;;;4975820;29;20483;-62
2021/01/11 05:57:55;;;;;;;12.63;9.13;;;1.80;99.90;;;;;;4975691;29;20471;-62
2021/01/11 06:00:22;;;;;;;21.03;9.63;;;1.80;99.90;;;;;;4975697;29;20460;-62
2021/01/11 06:02:49;;;;;;;15.77;9.50;;;1.80;99.90;;;;;;4981642;28;20472;-61
2021/01/11 06:05:17;;;;;;;16.60;9.40;;;1.70;99.90;;;;;;4976488;29;20495;-61
2021/01/11 06:07:45;;;;;;;16.33;9.13;;;1.70;99.90;;;;;;4976827;28;20451;-62
2021/01/11 06:10:13;;;;;;;15.90;9.33;;;1.70;99.90;;;;;;4974423;29;20440;-62
2021/01/11 06:12:40;;;;;;;14.47;9.50;;;1.70;99.90;;;;;;4973032;28;20460;-62
2021/01/11 06:15:09;;;;;;;15.40;9.63;;;1.70;99.90;;;;;;4972059;29;20440;-63
2021/01/11 06:17:36;;;;;;;18.90;9.87;;;1.70;99.90;;;;;;4973683;29;20475;-62
2021/01/11 06:20:03;;;;;;;15.80;9.47;;;1.80;99.90;;;;;;4986279;28;20509;-63
2021/01/11 06:23:12;;;;;;;16.63;9.83;;;1.80;99.90;;;;;;4993436;28;20431;-62
2021/01/11 06:25:44;;;;;;;20.97;12.17;;;1.90;99.90;;;;;;4993265;28;20925;-62
2021/01/11 06:28:12;;;;;;;17.37;9.80;;;1.90;99.90;;;;;;4991791;28;20457;-62
2021/01/11 06:30:41;;;;;;;17.73;9.97;;;1.90;99.90;;;;;;4992432;28;20454;-63
2021/01/11 06:33:09;;;;;;;14.63;8.40;;;1.90;99.90;;;;;;4991719;28;20474;-62
2021/01/11 06:35:37;;;;;;;14.03;10.23;;;2.00;99.90;;;;;;4991500;28;20482;-62
2021/01/11 06:38:17;;;;;;;20.87;10.40;;;2.00;99.90;;;;;;4992207;28;20910;-62
2021/01/11 06:40:48;;;;;;;22.43;10.30;;;2.10;99.90;;;;;;4993362;28;20475;-62
2021/01/11 06:43:15;;;;;;;14.13;8.87;;;2.00;99.90;;;;;;4992654;28;20533;-62
2021/01/11 06:45:43;;;;;;;17.50;10.67;;;2.00;99.90;;;;;;4989634;28;20541;-62
2021/01/11 06:48:13;;;;;;;20.93;10.50;;;2.00;99.90;;;;;;4992583;28;20447;-63
2021/01/11 06:50:41;;;;;;;17.60;9.63;;;2.00;99.90;;;;;;4993040;28;20462;-62
2021/01/11 06:53:08;;;;;;;20.10;10.17;;;2.00;99.90;;;;;;4992655;28;20466;-62
2021/01/11 06:55:34;;;;;;;15.33;9.17;;;1.90;99.90;;;;;;4992724;28;20474;-62
2021/01/11 06:58:02;;;;;;;15.23;9.70;;;1.90;99.90;;;;;;4993085;28;20463;-62
2021/01/11 07:00:33;;;;;;;12.53;9.00;;;1.90;99.90;;;;;;4991691;28;20466;-62
2021/01/11 07:03:01;;;;;;;13.80;8.77;;;1.90;99.90;;;;;;4992553;28;20470;-63
2021/01/11 07:05:49;;;;;;;13.90;8.73;;;2.00;99.90;;;;;;4992714;28;20478;-62
2021/01/11 07:08:20;;;;;;;13.33;8.60;;;2.10;99.90;;;;;;4993510;28;20459;-62
2021/01/11 07:10:50;;;;;;;16.10;9.30;;;2.00;99.90;;;;;;4991468;28;20524;-62
2021/01/11 07:13:28;;;;;;;16.90;10.10;;;2.00;99.90;;;;;;4991882;28;20455;-62
2021/01/11 07:16:14;;;;;;;20.53;10.90;;;2.10;99.90;;;;;;4991853;28;20446;-62
2021/01/11 07:19:01;;;;;;;12.27;8.70;;;2.10;99.90;;;;;;4991037;28;20467;-61
2021/01/11 07:21:28;;;;;;;19.00;10.80;;;2.10;99.90;;;;;;4989837;28;20763;-62
2021/01/11 07:23:56;;;;;;;16.77;10.07;;;2.10;99.90;;;;;;4989479;28;20483;-62
2021/01/11 07:26:24;;;;;;;14.30;9.67;;;2.10;99.90;;;;;;4993419;28;20462;-63
2021/01/11 07:28:56;;;;;;;16.10;10.50;;;2.10;99.90;;;;;;4994172;28;20442;-62
2021/01/11 07:31:25;;;;;;;17.60;9.83;;;2.20;99.90;;;;;;4994543;28;20482;-62
2021/01/11 07:34:03;;;;;;;23.70;11.60;;;2.20;99.90;;;;;;4993966;28;20490;-62
2021/01/11 07:36:36;;;;;;;19.87;10.70;;;2.10;99.90;;;;;;4994002;28;20506;-62
2021/01/11 07:39:15;;;;;;;19.40;9.50;;;2.10;99.90;;;;;;4994676;28;20575;-62
2021/01/11 07:41:43;;;;;;;20.50;9.37;;;2.10;99.90;;;;;;4994690;28;20482;-61
2021/01/11 07:44:18;;;;;;;14.90;9.40;;;2.10;99.90;;;;;;4994104;28;20478;-61
2021/01/11 07:46:52;;;;;;;15.70;9.40;;;2.10;99.90;;;;;;4994424;28;20450;-62
2021/01/11 07:49:19;;;;;;;20.20;10.47;;;2.10;99.90;;;;;;4994925;28;20462;-62
2021/01/11 07:51:47;;;;;;;11.27;8.00;;;2.10;99.90;;;;;;4995705;28;20453;-63
2021/01/11 07:54:15;;;;;;;14.70;10.23;;;2.10;99.90;;;;;;4994025;28;20447;-62
2021/01/11 07:56:43;;;;;;;16.70;9.60;;;2.10;99.90;;;;;;4993294;28;20910;-62
2021/01/11 07:59:09;;;;;;;12.57;8.83;;;2.10;99.90;;;;;;4993920;28;20482;-62
2021/01/11 08:01:40;;;;;;;15.93;9.57;;;2.10;99.90;;;;;;4994334;28;20462;-62
2021/01/11 08:04:09;;;;;;;16.13;10.00;;;2.20;99.90;;;;;;4994322;28;20513;-62
2021/01/11 08:06:52;;;;;;;19.90;10.70;;;2.20;99.90;;;;;;4994787;28;20960;-63
2021/01/11 08:09:20;;;;;;;16.73;10.10;;;2.20;99.90;;;;;;4995003;28;20442;-63
2021/01/11 08:11:47;;;;;;;13.50;8.80;;;2.20;99.90;;;;;;4987420;28;20463;-63
2021/01/11 08:14:14;;;;;;;12.80;9.37;;;2.30;99.90;;;;;;4984350;28;20854;-62
2021/01/11 08:16:48;;;;;;;19.00;9.57;;;2.30;99.90;;;;;;4989483;28;20499;-62
2021/01/11 08:19:15;;;;;;;14.83;7.77;;;2.20;99.90;;;;;;4994203;28;20467;-62
2021/01/11 08:21:42;;;;;;;14.83;9.13;;;2.20;99.90;;;;;;4989708;28;20498;-61
2021/01/11 08:24:10;;;;;;;15.70;10.13;;;2.20;99.90;;;;;;4986838;28;20510;-61
2021/01/11 08:26:47;;;;;;;15.87;9.47;;;2.30;99.90;;;;;;4980355;28;20463;-63
2021/01/11 08:29:14;;;;;;;12.13;8.17;;;2.20;99.90;;;;;;4989177;28;20526;-64
2021/01/11 08:31:44;;;;;;;13.63;7.80;;;2.30;99.90;;;;;;4989934;28;20447;-64
2021/01/11 08:34:11;;;;;;;12.80;7.73;;;2.30;99.90;;;;;;4989158;28;20455;-64
2021/01/11 08:36:38;;;;;;;16.50;8.03;;;2.30;99.90;;;;;;4990236;28;20454;-64
2021/01/11 08:39:14;;;;;;;16.87;9.10;;;2.40;99.90;;;;;;4990947;28;20450;-64
2021/01/11 08:41:43;;;;;;;15.73;8.00;;;2.30;99.90;;;;;;4990324;28;20458;-63
2021/01/11 08:44:25;;;;;;;18.13;10.00;;;2.30;99.90;;;;;;4989133;28;20614;-63
2021/01/11 08:47:11;;;;;;;15.50;9.97;;;2.40;99.90;;;;;;4990966;28;20461;-64
2021/01/11 08:49:56;;;;;;;11.80;8.03;;;2.40;99.90;;;;;;4996979;28;20439;-65
2021/01/11 08:52:29;;;;;;;15.00;6.90;;;2.50;99.90;;;;;;4997037;28;20447;-64
2021/01/11 08:55:08;;;;;;;12.83;6.87;;;2.50;99.90;;;;;;4993505;28;20442;-63
2021/01/11 08:57:35;;;;;;;15.20;9.23;;;2.50;99.90;;;;;;4987656;28;20567;-64
2021/01/11 09:00:07;;;;;;;11.17;7.90;;;2.60;99.90;;;;;;4978818;28;20443;-62
2021/01/11 09:02:36;;;;;;;12.13;7.70;;;2.60;99.90;;;;;;4987382;28;20462;-62
2021/01/11 09:05:17;;;;;;;12.33;8.40;;;2.60;99.90;;;;;;4981835;28;20530;-61
2021/01/11 09:07:45;;;;;;;19.93;11.67;;;3.70;99.90;;;;;;4966259;29;20854;-61
2021/01/11 09:10:24;;;;;;;12.70;9.70;;;4.20;99.90;;;;;;4966339;28;20444;-61
2021/01/11 09:12:52;;;;;;;13.37;7.43;;;4.40;99.90;;;;;;4982883;28;20458;-60
2021/01/11 09:15:27;;;;;;;13.43;7.70;;;4.10;99.90;;;;;;4980941;28;20451;-61
2021/01/11 09:18:39;;;;;;;15.47;10.30;;;3.70;99.90;;;;;;4979978;28;20509;-60
2021/01/11 09:21:08;;;;;;;20.27;8.30;;;3.50;99.90;;;;;;4982572;28;20465;-61
2021/01/11 09:23:35;;;;;;;15.00;8.47;;;3.30;99.90;;;;;;4986649;28;20454;-62
2021/01/11 09:26:02;;;;;;;13.93;7.97;;;3.10;99.90;;;;;;4980178;28;20489;-62
2021/01/11 09:28:29;;;;;;;12.23;7.30;;;3.00;99.90;;;;;;4980281;28;20470;-61
2021/01/11 09:30:55;;;;;;;20.87;9.20;;;2.90;99.90;;;;;;4963410;29;20487;-61
2021/01/11 09:33:47;;;;;;;14.70;8.07;;;2.90;99.90;;;;;;4977956;28;20483;-62
2021/01/11 09:36:13;;;;;;;18.37;8.80;;;2.80;99.90;;;;;;4976944;29;20452;-61
2021/01/11 09:38:40;;;;;;;13.53;8.03;;;2.80;99.90;;;;;;4986809;28;20486;-62
2021/01/11 09:41:09;;;;;;;11.33;7.60;;;2.80;99.90;;;;;;4975314;28;20508;-58
2021/01/11 09:43:35;;;;;;;12.00;7.77;;;2.80;99.90;;;;;;4991611;28;20486;-61
2021/01/11 09:46:02;;;;;;;14.80;8.47;;;2.90;99.90;;;;;;4986397;28;20948;-61
2021/01/11 09:48:28;;;;;;;9.73;6.43;;;2.80;99.90;;;;;;4993324;28;20443;-62
2021/01/11 09:50:56;;;;;;;15.43;8.07;;;2.90;99.90;;;;;;4987187;28;20473;-61
2021/01/11 09:53:22;;;;;;;11.00;6.50;;;3.00;99.90;;;;;;4982363;28;20451;-62
2021/01/11 09:55:49;;;;;;;11.27;6.80;;;3.00;99.90;;;;;;4968679;28;20471;-61
2021/01/11 09:58:16;;;;;;;10.07;7.27;;;3.00;99.90;;;;;;4970884;28;20470;-61
2021/01/11 10:00:43;;;;;;;12.00;7.67;;;3.10;99.90;;;;;;4973295;28;20451;-61
2021/01/11 10:03:10;;;;;;;11.93;7.20;;;3.10;99.90;;;;;;4986303;28;20486;-61
2021/01/11 10:05:36;;;;;;;14.83;7.23;;;3.10;99.90;;;;;;4981083;28;20479;-60
2021/01/11 10:08:05;;;;;;;9.97;7.70;;;3.10;99.90;;;;;;4973379;28;20498;-60
2021/01/11 10:10:31;;;;;;;8.53;6.43;;;3.00;99.90;;;;;;4973711;28;20451;-62
2021/01/11 10:13:01;;;;;;;10.03;6.23;;;3.00;99.90;;;;;;4976053;28;20423;-60
2021/01/11 10:15:28;;;;;;;10.60;6.53;;;2.90;99.90;;;;;;4983089;28;20531;-61
2021/01/11 10:17:54;;;;;;;10.20;6.57;;;2.90;99.90;;;;;;4975968;28;20474;-61
2021/01/11 10:20:24;;;;;;;9.97;6.83;;;2.80;99.90;;;;;;4979079;28;20489;-59
2021/01/11 10:29:27;;;;;;;8.77;6.10;;;3.00;99.90;;;;;;4980112;28;20439;-60
2021/01/11 10:31:55;;;;;;;10.13;7.03;;;2.90;99.90;;;;;;4982151;28;20435;-62
2021/01/11 10:34:29;;;;;;;13.97;8.63;;;2.90;99.90;;;;;;4977809;28;20444;-61
2021/01/11 10:36:58;;;;;;;12.73;7.10;;;3.10;99.90;;;;;;4973931;28;20565;-63
2021/01/11 10:39:27;;;;;;;9.40;6.40;;;3.10;99.90;;;;;;4972296;28;20530;-58
2021/01/11 10:41:55;;;;;;;8.77;5.80;;;3.10;99.90;;;;;;4975951;28;20454;-61
2021/01/11 10:44:23;;;;;;;9.87;6.03;;;3.10;99.90;;;;;;4980359;28;20549;-61
2021/01/11 10:46:51;;;;;;;10.53;6.70;;;3.10;99.90;;;;;;4977105;28;20482;-62
2021/01/11 10:49:18;;;;;;;8.73;6.00;;;3.10;99.90;;;;;;4971252;28;20457;-61
2021/01/11 10:51:45;;;;;;;6.37;4.93;;;3.10;99.90;;;;;;4974901;28;20451;-61
2021/01/11 10:54:12;;;;;;;9.80;6.53;;;3.10;99.90;;;;;;4971399;28;20450;-61
2021/01/11 10:56:43;;;;;;;9.73;6.50;;;3.10;99.90;;;;;;4969949;28;20447;-63
2021/01/11 10:59:12;;;;;;;8.80;5.47;;;3.20;99.90;;;;;;4970076;28;20471;-60
2021/01/11 11:01:39;;;;;;;11.37;7.30;;;3.20;99.90;;;;;;4981811;28;20462;-61
2021/01/11 11:04:08;;;;;;;12.00;7.10;;;3.20;99.90;;;;;;4981204;28;20479;-64
2021/01/11 11:06:34;;;;;;;15.20;6.50;;;3.30;99.90;;;;;;4974172;28;20482;-61
2021/01/11 11:09:01;;;;;;;8.13;4.80;;;3.30;99.90;;;;;;4971609;28;20447;-62
2021/01/11 11:11:28;;;;;;;10.70;5.57;;;3.20;99.90;;;;;;4975983;28;20876;-66
2021/01/11 11:13:55;;;;;;;9.63;5.83;;;3.20;99.90;;;;;;4972757;28;20538;-64
2021/01/11 11:16:22;;;;;;;9.13;5.47;;;3.20;99.90;;;;;;4965323;28;20459;-64
2021/01/11 11:18:49;;;;;;;7.60;4.27;;;3.20;99.90;;;;;;4971518;28;20457;-64
2021/01/11 11:21:15;;;;;;;10.67;5.63;;;3.20;99.90;;;;;;4974005;28;20526;-63
2021/01/11 11:23:42;;;;;;;10.17;6.67;;;3.10;99.90;;;;;;4976898;28;20447;-61
2021/01/11 11:26:10;;;;;;;11.27;6.33;;;3.10;99.90;;;;;;4983984;28;20462;-61
2021/01/11 11:28:37;;;;;;;8.50;5.90;;;3.10;99.90;;;;;;4971379;28;20453;-61
2021/01/11 11:31:06;;;;;;;9.67;6.37;;;3.10;99.90;;;;;;4965758;28;20440;-60
2021/01/11 11:33:32;;;;;;;10.10;6.47;;;3.10;99.90;;;;;;4970590;28;20471;-60
2021/01/11 11:35:59;;;;;;;7.90;5.90;;;3.10;99.90;;;;;;4975143;28;20482;-61
2021/01/11 11:38:26;;;;;;;10.30;6.77;;;3.00;99.90;;;;;;4973269;28;20935;-60
2021/01/11 11:40:52;;;;;;;12.03;6.70;;;3.00;99.90;;;;;;4974717;28;20455;-61
2021/01/11 11:43:23;;;;;;;11.60;7.07;;;3.00;99.90;;;;;;4972225;28;20800;-61
2021/01/11 11:45:58;;;;;;;10.30;6.43;;;3.00;99.90;;;;;;4980552;28;20503;-62
2021/01/11 11:48:25;;;;;;;11.17;6.90;;;2.90;99.90;;;;;;4980949;28;20499;-62
2021/01/11 11:50:51;;;;;;;16.30;9.17;;;2.90;99.90;;;;;;4983605;28;20512;-61
2021/01/11 11:53:18;;;;;;;18.80;10.33;;;2.90;99.90;;;;;;4974566;28;20455;-64
2021/01/11 11:55:44;;;;;;;14.50;7.50;;;3.00;99.90;;;;;;4975185;28;20443;-63
2021/01/11 11:58:14;;;;;;;15.20;8.23;;;3.00;99.90;;;;;;4975903;28;20467;-61
2021/01/11 12:00:43;;;;;;;10.40;6.67;;;3.00;99.90;;;;;;4986552;28;20468;-62
2021/01/11 12:03:12;;;;;;;11.30;6.83;;;3.10;99.90;;;;;;4988535;28;20458;-63
2021/01/11 12:05:39;;;;;;;11.80;7.60;;;3.00;99.90;;;;;;4974385;28;20811;-62
2021/01/11 12:08:06;;;;;;;15.57;8.70;;;3.10;99.90;;;;;;4973304;28;20458;-64
2021/01/11 12:10:32;;;;;;;9.57;6.30;;;3.10;99.90;;;;;;4971695;28;20443;-63
2021/01/11 12:12:59;;;;;;;21.33;10.30;;;3.10;99.90;;;;;;4977237;28;20471;-62
2021/01/11 12:15:25;;;;;;;13.53;7.60;;;3.10;99.90;;;;;;4976697;28;20492;-63
2021/01/11 12:17:51;;;;;;;13.77;8.10;;;3.10;99.90;;;;;;4972352;28;20934;-62
2021/01/11 12:20:19;;;;;;;10.77;7.07;;;3.20;99.90;;;;;;4982843;28;20949;-63
2021/01/11 12:22:48;;;;;;;11.13;6.87;;;3.20;99.90;;;;;;4979047;28;20443;-64
2021/01/11 12:25:15;;;;;;;9.77;5.53;;;3.20;99.90;;;;;;4977469;28;20543;-62
2021/01/11 12:27:41;;;;;;;9.57;5.47;;;3.20;99.90;;;;;;4978899;28;20965;-62
2021/01/11 12:30:08;;;;;;;8.43;5.60;;;3.30;99.90;;;;;;4972941;28;20443;-62
2021/01/11 12:32:39;;;;;;;10.50;6.10;;;3.20;99.90;;;;;;4973252;28;20475;-60
2021/01/11 12:35:06;;;;;;;9.00;6.37;;;3.10;99.90;;;;;;4967973;28;20454;-60
2021/01/11 12:37:33;;;;;;;7.70;5.70;;;3.10;99.90;;;;;;4971632;28;20542;-60
2021/01/11 12:40:00;;;;;;;9.13;5.57;;;3.20;99.90;;;;;;4971754;28;20962;-60
2021/01/11 12:42:27;;;;;;;6.43;5.47;;;3.10;99.90;;;;;;4975582;28;20546;-60
2021/01/11 12:44:53;;;;;;;9.27;5.60;;;3.10;99.90;;;;;;4970916;28;20523;-60
2021/01/11 12:47:22;;;;;;;13.57;6.57;;;3.10;99.90;;;;;;4978988;28;20816;-61
2021/01/11 12:49:49;;;;;;;13.23;9.37;;;3.10;99.90;;;;;;4970616;28;20527;-61
2021/01/11 12:52:16;;;;;;;9.70;6.13;;;3.10;99.90;;;;;;4972915;28;20479;-62
2021/01/11 12:54:42;;;;;;;10.07;6.33;;;3.10;99.90;;;;;;4971679;28;20443;-62
2021/01/11 12:57:10;;;;;;;7.40;5.57;;;3.10;99.90;;;;;;4973161;28;20502;-62
2021/01/11 12:59:37;;;;;;;7.20;5.07;;;3.10;99.90;;;;;;4967278;28;20535;-63
2021/01/11 13:02:04;;;;;;;11.23;5.80;;;3.10;99.90;;;;;;4972745;28;20448;-62
2021/01/11 13:04:30;;;;;;;11.53;6.50;;;3.00;99.90;;;;;;4980945;28;20465;-63